Time;durP1;ratioP1;P1;durP2;ratioP2;P2;SDS_P1;SDS_P2;PMS_P1;PMS_P2;Temp;Humidity;BMP_temperature;BMP_pressure;BME280_temperature;BME280_humidity;BME280_pressure;Samples;Min_cycle;Max_cycle;Signal;HPM_P1;HPM_P2
2021/08/05 00:00:35;;;;;;;5.13;4.10;;;17.20;99.90;17.00;96227.00;;;;5050689;28;20713;-86
2021/08/05 00:03:24;;;;;;;5.07;3.57;;;17.20;99.90;16.90;96232.00;;;;5049209;28;20233;-85
2021/08/05 00:06:14;;;;;;;4.43;4.03;;;17.20;99.90;16.90;96234.00;;;;5049918;28;20195;-85
2021/08/05 00:09:03;;;;;;;5.07;3.37;;;17.20;99.90;16.90;96233.00;;;;5062790;28;20196;-85
2021/08/05 00:11:52;;;;;;;7.97;3.90;;;17.20;99.90;16.90;96231.00;;;;5068445;28;20242;-85
2021/08/05 00:14:43;;;;;;;4.50;3.50;;;17.20;99.90;16.90;96235.00;;;;5070047;28;20204;-85
2021/08/05 00:17:31;;;;;;;5.23;3.57;;;17.10;99.90;16.90;96217.00;;;;5071357;28;20192;-85
2021/08/05 00:20:20;;;;;;;3.70;3.23;;;17.20;99.90;17.00;96208.00;;;;5069400;28;20232;-85
2021/08/05 00:23:11;;;;;;;3.57;3.23;;;17.20;99.90;17.00;96212.00;;;;5068860;28;20569;-86
2021/08/05 00:26:00;;;;;;;4.70;3.77;;;17.20;99.90;16.90;96213.00;;;;5069484;28;20204;-86
2021/08/05 00:28:49;;;;;;;5.83;3.77;;;17.20;99.90;17.00;96209.00;;;;5070373;28;20196;-85
2021/08/05 00:31:39;;;;;;;8.87;4.13;;;17.20;99.90;16.90;96218.00;;;;5070128;28;20596;-85
2021/08/05 00:34:28;;;;;;;5.83;3.77;;;17.20;99.90;16.80;96205.00;;;;5069908;28;20200;-85
2021/08/05 00:37:16;;;;;;;4.53;4.13;;;17.10;99.90;16.90;96197.00;;;;5069547;28;20250;-85
2021/08/05 00:40:08;;;;;;;4.30;3.90;;;17.10;99.90;16.90;96197.00;;;;5070235;28;20227;-85
2021/08/05 00:42:56;;;;;;;4.30;3.90;;;17.10;99.90;16.90;96189.00;;;;5068528;28;20235;-85
2021/08/05 00:45:45;;;;;;;4.37;3.97;;;17.20;99.90;16.90;96194.00;;;;5069307;28;20206;-85
2021/08/05 00:48:34;;;;;;;3.47;3.17;;;17.10;99.90;16.90;96190.00;;;;5070243;28;20204;-85
2021/08/05 00:51:23;;;;;;;5.40;3.73;;;17.10;99.90;16.90;96171.00;;;;5070187;28;20203;-85
2021/08/05 00:54:12;;;;;;;4.57;3.90;;;17.10;99.90;16.90;96169.00;;;;5068735;28;20211;-86
2021/08/05 00:57:03;;;;;;;4.70;4.30;;;17.10;99.90;16.90;96157.00;;;;5070107;28;20196;-85
2021/08/05 00:59:52;;;;;;;4.47;3.67;;;17.10;99.90;16.90;96152.00;;;;5070201;28;20235;-86
2021/08/05 01:02:46;;;;;;;3.67;3.37;;;17.10;99.90;16.90;96154.00;;;;5069290;28;20215;-86
2021/08/05 01:05:42;;;;;;;5.23;3.93;;;17.10;99.90;16.90;96164.00;;;;5069665;28;20218;-85
2021/08/05 01:08:32;;;;;;;4.90;4.40;;;17.10;99.90;16.80;96152.00;;;;5061717;28;20189;-86
2021/08/05 01:11:27;;;;;;;5.17;3.37;;;17.10;99.90;16.80;96156.00;;;;5047294;28;20283;-86
2021/08/05 01:14:19;;;;;;;8.43;3.77;;;17.10;99.90;16.80;96142.00;;;;5049212;28;20215;-86
2021/08/05 01:17:10;;;;;;;4.63;4.17;;;17.10;99.90;16.70;96153.00;;;;5049673;28;20234;-86
2021/08/05 01:20:00;;;;;;;7.63;3.70;;;17.00;99.90;16.50;96154.00;;;;5049842;28;20585;-86
2021/08/05 01:23:04;;;;;;;9.33;4.47;;;17.00;99.90;16.50;96159.00;;;;5048625;28;20443;-86
2021/08/05 01:25:58;;;;;;;6.50;4.30;;;16.90;99.90;16.50;96156.00;;;;5046039;28;20669;-86
2021/08/05 01:28:49;;;;;;;6.93;5.17;;;16.90;99.90;16.50;96156.00;;;;5044965;28;20212;-85
2021/08/05 01:31:39;;;;;;;6.33;4.10;;;16.80;99.90;16.60;96151.00;;;;5049256;28;20203;-86
2021/08/05 01:34:29;;;;;;;6.97;4.20;;;16.90;99.90;16.60;96150.00;;;;5048206;28;20662;-84
2021/08/05 01:37:19;;;;;;;6.43;4.63;;;16.80;99.90;16.60;96139.00;;;;5049178;28;20193;-86
2021/08/05 01:40:10;;;;;;;5.03;4.03;;;16.80;99.90;16.60;96138.00;;;;5049026;28;20709;-85
2021/08/05 01:43:01;;;;;;;7.30;4.17;;;16.90;99.90;16.60;96128.00;;;;5048411;28;20224;-86
2021/08/05 01:45:52;;;;;;;4.63;4.23;;;16.90;99.90;16.60;96128.00;;;;5047795;28;20199;-85
2021/08/05 01:48:42;;;;;;;4.70;4.27;;;16.90;99.90;16.60;96133.00;;;;5049296;28;20197;-85
2021/08/05 01:51:32;;;;;;;6.10;3.90;;;16.90;99.90;16.60;96130.00;;;;5048526;28;20579;-85
2021/08/05 01:54:21;;;;;;;5.37;4.87;;;16.80;99.90;16.60;96129.00;;;;5048194;28;20193;-85
2021/08/05 01:57:12;;;;;;;5.00;4.00;;;16.80;99.90;16.60;96122.00;;;;5047690;28;20227;-85
2021/08/05 02:00:01;;;;;;;4.17;3.77;;;16.80;99.90;16.60;96129.00;;;;5049533;28;20224;-86
2021/08/05 02:02:53;;;;;;;4.07;3.60;;;16.80;99.90;16.60;96135.00;;;;5047342;28;20647;-85
2021/08/05 02:05:49;;;;;;;3.90;3.13;;;16.80;99.90;16.50;96147.00;;;;5047918;28;20193;-86
2021/08/05 02:08:51;;;;;;;9.13;3.37;;;16.80;99.90;16.50;96142.00;;;;5062597;28;20196;-85
2021/08/05 02:11:46;;;;;;;4.17;3.77;;;16.80;99.90;16.50;96132.00;;;;5072142;28;20195;-85
2021/08/05 02:14:36;;;;;;;4.53;3.97;;;16.80;99.90;16.60;96135.00;;;;5072112;28;20207;-85
2021/08/05 02:17:26;;;;;;;3.90;3.60;;;16.80;99.90;16.50;96136.00;;;;5072857;28;20250;-84
2021/08/05 02:20:17;;;;;;;4.40;3.60;;;16.80;99.90;16.60;96137.00;;;;5072448;28;20231;-84
2021/08/05 02:23:06;;;;;;;6.87;3.40;;;16.80;99.90;16.60;96124.00;;;;5071709;28;20224;-84
2021/08/05 02:25:56;;;;;;;3.57;3.17;;;16.80;99.90;16.50;96111.00;;;;5071626;28;20661;-85
2021/08/05 02:28:46;;;;;;;4.50;3.87;;;16.70;99.90;16.50;96109.00;;;;5072364;28;20192;-85
2021/08/05 02:31:37;;;;;;;5.40;3.47;;;16.70;99.90;16.50;96090.00;;;;5071446;28;20203;-86
2021/08/05 02:34:27;;;;;;;4.53;3.90;;;16.70;99.90;16.50;96078.00;;;;5070373;28;20200;-85
2021/08/05 02:37:17;;;;;;;4.80;4.07;;;16.70;99.90;16.50;96070.00;;;;5071944;28;20200;-85
2021/08/05 02:40:09;;;;;;;9.03;4.17;;;16.70;99.90;16.50;96054.00;;;;5071708;28;20216;-85
2021/08/05 02:42:59;;;;;;;3.60;3.30;;;16.70;99.90;16.50;96040.00;;;;5070809;28;20216;-85
2021/08/05 02:45:50;;;;;;;7.47;3.80;;;16.70;99.90;16.40;96037.00;;;;5071929;28;20192;-85
2021/08/05 02:48:39;;;;;;;4.77;3.77;;;16.70;99.90;16.50;96029.00;;;;5071230;28;20196;-85
2021/08/05 02:51:29;;;;;;;11.27;4.23;;;16.70;99.90;16.40;96020.00;;;;5071262;28;20214;-84
2021/08/05 02:54:20;;;;;;;6.57;3.73;;;16.70;99.90;16.40;96012.00;;;;5070876;28;20211;-84
2021/08/05 02:57:09;;;;;;;8.07;3.63;;;16.70;99.90;16.30;96006.00;;;;5071240;28;20199;-85
2021/08/05 02:59:58;;;;;;;5.33;4.03;;;16.60;99.90;16.10;96009.00;;;;5071693;28;20352;-84
2021/08/05 03:02:48;;;;;;;4.33;3.90;;;16.60;99.90;16.10;96008.00;;;;5070205;28;20196;-85
2021/08/05 03:05:37;;;;;;;13.67;4.57;;;16.50;99.90;16.00;96002.00;;;;5071082;28;20245;-85
2021/08/05 03:08:27;;;;;;;4.13;3.73;;;16.50;99.90;16.10;95981.00;;;;5063386;28;20670;-85
2021/08/05 03:11:17;;;;;;;4.90;4.33;;;16.40;99.90;16.20;95974.00;;;;5048949;28;20224;-85
2021/08/05 03:14:06;;;;;;;4.63;4.23;;;16.40;99.90;16.10;95970.00;;;;5050173;28;20211;-84
2021/08/05 03:16:55;;;;;;;8.30;4.53;;;16.40;99.90;16.20;95962.00;;;;5050089;28;20205;-85
2021/08/05 03:19:44;;;;;;;4.00;3.60;;;16.40;99.90;16.20;95957.00;;;;5050857;28;20608;-85
2021/08/05 03:22:33;;;;;;;4.43;4.03;;;16.40;99.90;16.20;95956.00;;;;5049445;28;20197;-85
2021/08/05 03:25:22;;;;;;;5.77;3.80;;;16.40;99.90;16.10;95935.00;;;;5050703;28;20209;-85
2021/08/05 03:28:12;;;;;;;5.10;4.50;;;16.40;99.90;16.20;95928.00;;;;5050678;28;20579;-84
2021/08/05 03:31:01;;;;;;;8.80;5.13;;;16.40;99.90;16.20;95928.00;;;;5048908;28;20217;-85
2021/08/05 03:33:50;;;;;;;5.10;4.30;;;16.40;99.90;16.10;95915.00;;;;5048188;28;20597;-84
2021/08/05 03:36:38;;;;;;;5.30;3.77;;;16.40;99.90;16.10;95899.00;;;;5049747;28;20203;-84
2021/08/05 03:39:27;;;;;;;6.57;4.47;;;16.40;99.90;16.00;95916.00;;;;5051684;28;20716;-85
2021/08/05 03:42:16;;;;;;;4.63;4.13;;;16.50;99.90;16.00;95910.00;;;;5050551;28;20201;-84
2021/08/05 03:45:08;;;;;;;6.10;3.97;;;16.40;99.90;16.00;95908.00;;;;5049693;28;20236;-84
2021/08/05 03:47:56;;;;;;;4.33;3.77;;;16.30;99.90;16.00;95910.00;;;;5049973;28;20209;-85
2021/08/05 03:50:45;;;;;;;5.57;4.57;;;16.30;99.90;16.00;95916.00;;;;5050763;28;20231;-84
2021/08/05 03:53:34;;;;;;;5.17;4.00;;;16.30;99.90;16.00;95911.00;;;;5049035;28;20211;-84
2021/08/05 03:56:23;;;;;;;5.03;4.33;;;16.30;99.90;16.00;95917.00;;;;5050180;28;20220;-85
2021/08/05 03:59:12;;;;;;;4.63;4.17;;;16.30;99.90;16.10;95921.00;;;;5050330;28;20201;-86
2021/08/05 04:02:02;;;;;;;4.60;4.20;;;16.30;99.90;16.00;95914.00;;;;5050183;28;20193;-85
2021/08/05 04:04:51;;;;;;;5.03;4.40;;;16.30;99.90;16.10;95926.00;;;;5050288;28;20601;-86
2021/08/05 04:07:41;;;;;;;7.13;3.80;;;16.30;99.90;16.10;95938.00;;;;5050774;28;20211;-85
2021/08/05 04:10:31;;;;;;;4.37;3.97;;;16.30;99.90;16.00;95937.00;;;;5070242;28;20219;-84
2021/08/05 04:13:20;;;;;;;8.70;4.27;;;16.30;99.90;16.00;95934.00;;;;5068640;28;20204;-86
2021/08/05 04:16:09;;;;;;;3.80;3.50;;;16.30;99.90;16.00;95931.00;;;;5059234;28;20207;-85
2021/08/05 04:18:59;;;;;;;4.67;3.73;;;16.30;99.90;16.00;95935.00;;;;5046821;28;20604;-84
2021/08/05 04:21:51;;;;;;;4.60;4.03;;;16.30;99.90;16.00;95925.00;;;;5048903;28;20197;-86
2021/08/05 04:24:40;;;;;;;3.97;3.57;;;16.30;99.90;16.00;95912.00;;;;5049556;28;20229;-84
2021/08/05 04:27:29;;;;;;;5.13;3.77;;;16.30;99.90;16.00;95913.00;;;;5050911;28;20689;-86
2021/08/05 04:30:21;;;;;;;5.23;3.90;;;16.30;99.90;16.00;95886.00;;;;5049328;28;20231;-85
2021/08/05 04:33:10;;;;;;;5.30;3.33;;;16.30;99.90;16.00;95844.00;;;;5049013;28;20200;-85
2021/08/05 04:36:00;;;;;;;6.03;5.10;;;16.30;99.90;16.00;95837.00;;;;5048785;28;20575;-86
2021/08/05 04:38:49;;;;;;;4.40;4.10;;;16.20;99.90;16.00;95854.00;;;;5049359;28;20216;-87
2021/08/05 04:41:38;;;;;;;5.53;3.93;;;16.20;99.90;16.00;95850.00;;;;5062897;28;20609;-87
2021/08/05 04:44:26;;;;;;;4.17;3.77;;;16.20;99.90;16.00;95839.00;;;;5069011;28;20604;-87
2021/08/05 04:47:15;;;;;;;3.57;3.27;;;16.20;99.90;16.00;95810.00;;;;5069779;28;20210;-87
2021/08/05 04:50:05;;;;;;;3.87;3.43;;;16.20;99.90;16.00;95775.00;;;;5062242;28;20212;-86
2021/08/05 04:52:56;;;;;;;3.87;3.47;;;16.20;99.90;16.00;95778.00;;;;5068376;28;20210;-86
2021/08/05 04:55:45;;;;;;;7.00;4.67;;;16.20;99.90;15.90;95814.00;;;;5068557;28;20204;-86
2021/08/05 04:58:34;;;;;;;4.10;3.70;;;16.20;99.90;15.90;95812.00;;;;5068292;28;20196;-86
2021/08/05 05:01:23;;;;;;;6.13;4.30;;;16.20;99.90;16.00;95798.00;;;;5057141;28;20208;-85
2021/08/05 05:04:12;;;;;;;4.57;3.57;;;16.20;99.90;15.90;95798.00;;;;5048389;28;20224;-86
2021/08/05 05:07:01;;;;;;;4.50;4.10;;;16.20;99.90;15.90;95807.00;;;;5049023;28;20196;-87
2021/08/05 05:09:51;;;;;;;5.30;3.90;;;16.20;99.90;15.80;95796.00;;;;5049696;28;20213;-86
2021/08/05 05:12:40;;;;;;;5.13;4.63;;;16.20;99.90;15.90;95789.00;;;;5028343;28;20593;-84
2021/08/05 05:15:29;;;;;;;6.93;4.60;;;16.20;99.90;16.00;95800.00;;;;5028816;28;20209;-86
2021/08/05 05:18:24;;;;;;;4.60;4.20;;;16.20;99.90;15.90;95810.00;;;;5029531;28;20190;-85
2021/08/05 05:21:12;;;;;;;7.50;4.40;;;16.20;99.90;15.90;95819.00;;;;5039862;28;20603;-86
2021/08/05 05:24:01;;;;;;;4.13;3.70;;;16.20;99.90;15.80;95820.00;;;;5048216;28;20594;-87
2021/08/05 05:26:53;;;;;;;4.13;3.70;;;16.20;99.90;15.90;95816.00;;;;5049836;28;20200;-86
2021/08/05 05:29:41;;;;;;;3.57;3.27;;;16.20;99.90;16.00;95818.00;;;;5049730;28;20728;-86
2021/08/05 05:32:31;;;;;;;4.53;4.13;;;16.20;99.90;16.10;95839.00;;;;5061698;28;20598;-84
2021/08/05 05:35:21;;;;;;;4.87;4.37;;;16.30;99.90;16.30;95847.00;;;;5069203;28;20198;-86
2021/08/05 05:38:11;;;;;;;4.60;4.17;;;16.30;99.90;16.30;95834.00;;;;5069116;28;20196;-86
2021/08/05 05:41:00;;;;;;;6.33;4.50;;;16.40;99.90;16.50;95826.00;;;;5052840;28;20241;-86
2021/08/05 05:43:50;;;;;;;6.00;4.87;;;16.50;99.90;16.60;95830.00;;;;5045549;28;20212;-85
2021/08/05 05:46:39;;;;;;;4.33;3.93;;;16.60;99.90;16.70;95845.00;;;;5045651;28;20244;-85
2021/08/05 05:49:28;;;;;;;4.83;3.80;;;16.70;99.90;16.70;95858.00;;;;5040749;28;20216;-84
2021/08/05 05:52:17;;;;;;;5.60;4.50;;;16.70;99.90;16.80;95872.00;;;;5063333;28;20200;-86
2021/08/05 05:55:07;;;;;;;5.17;4.20;;;16.80;99.90;16.80;95868.00;;;;5047842;28;20201;-85
2021/08/05 05:57:57;;;;;;;5.93;4.53;;;16.90;99.90;16.80;95875.00;;;;5048526;28;20689;-86
2021/08/05 06:00:47;;;;;;;4.93;4.50;;;16.90;99.90;16.70;95864.00;;;;5049026;28;20224;-86
2021/08/05 06:03:36;;;;;;;4.73;3.90;;;16.90;99.90;16.80;95864.00;;;;5048180;28;20205;-86
2021/08/05 06:06:25;;;;;;;4.50;4.10;;;16.90;99.90;16.90;95864.00;;;;5047221;28;20235;-86
2021/08/05 06:09:16;;;;;;;5.63;4.40;;;17.00;99.90;16.90;95864.00;;;;5053879;28;20225;-84
2021/08/05 06:12:06;;;;;;;4.43;3.60;;;17.00;99.90;16.90;95864.00;;;;5048592;28;20208;-85
2021/08/05 06:14:54;;;;;;;4.50;4.07;;;17.00;99.90;16.90;95872.00;;;;5048974;28;20673;-84
2021/08/05 06:17:46;;;;;;;4.93;3.60;;;17.10;99.90;16.90;95862.00;;;;5048913;28;20364;-86
2021/08/05 06:20:35;;;;;;;5.87;3.70;;;17.00;99.90;16.90;95872.00;;;;5044285;28;20232;-86
2021/08/05 06:23:24;;;;;;;6.07;3.73;;;17.00;99.90;16.80;95873.00;;;;5047029;28;20662;-86
2021/08/05 06:26:13;;;;;;;4.33;3.93;;;17.00;99.90;16.80;95865.00;;;;5046013;28;20228;-86
2021/08/05 06:29:02;;;;;;;5.90;3.90;;;17.20;99.90;16.80;95871.00;;;;5049036;28;20200;-85
2021/08/05 06:31:51;;;;;;;5.60;3.63;;;17.00;99.90;16.80;95872.00;;;;5047863;28;20201;-85
2021/08/05 06:34:41;;;;;;;4.80;4.40;;;17.00;99.90;16.70;95863.00;;;;5051673;28;20188;-86
2021/08/05 06:37:31;;;;;;;8.57;5.33;;;17.00;99.90;16.80;95856.00;;;;5047959;28;20208;-86
2021/08/05 06:40:20;;;;;;;6.77;5.20;;;17.00;99.90;16.80;95849.00;;;;5051226;28;20226;-85
2021/08/05 06:43:09;;;;;;;4.63;4.23;;;17.00;99.90;16.90;95841.00;;;;5047899;28;20681;-85
2021/08/05 06:45:58;;;;;;;5.57;4.80;;;17.00;99.90;17.00;95844.00;;;;5045740;28;20689;-85
2021/08/05 06:48:47;;;;;;;8.20;4.57;;;17.10;99.90;17.00;95839.00;;;;5049611;28;20841;-86
2021/08/05 06:51:37;;;;;;;4.83;4.43;;;17.10;99.90;17.10;95837.00;;;;5050259;28;20188;-85
2021/08/05 06:54:26;;;;;;;5.03;4.60;;;17.20;99.90;17.20;95835.00;;;;5054110;28;20204;-84
2021/08/05 06:57:15;;;;;;;4.87;4.17;;;17.20;99.90;17.40;95850.00;;;;5038561;28;20574;-85
2021/08/05 07:00:05;;;;;;;6.67;4.93;;;17.30;99.90;17.40;95845.00;;;;5051379;28;20219;-85
2021/08/05 07:02:54;;;;;;;7.23;5.03;;;17.40;99.90;17.30;95854.00;;;;5052860;28;20235;-86
2021/08/05 07:05:43;;;;;;;5.53;4.87;;;17.40;99.90;17.40;95852.00;;;;5045760;28;20508;-85
2021/08/05 07:08:35;;;;;;;5.70;4.80;;;17.50;99.90;17.50;95848.00;;;;5060202;28;20192;-86
2021/08/05 07:11:24;;;;;;;5.13;4.63;;;17.50;99.90;17.40;95843.00;;;;5045752;28;20196;-86
2021/08/05 07:14:13;;;;;;;2.70;2.50;;;17.50;99.90;17.30;95830.00;;;;5049646;28;20193;-86
2021/08/05 07:17:02;;;;;;;5.03;3.57;;;17.60;99.90;17.50;95833.00;;;;5041427;28;20204;-85
2021/08/05 07:19:51;;;;;;;3.53;2.27;;;17.60;99.90;17.60;95831.00;;;;5051086;28;20317;-86
2021/08/05 07:22:41;;;;;;;2.80;2.03;;;17.60;99.90;17.30;95832.00;;;;5050231;28;20200;-86
2021/08/05 07:25:31;;;;;;;3.23;2.93;;;17.60;99.90;17.20;95830.00;;;;5049661;28;20231;-86
2021/08/05 07:28:20;;;;;;;3.00;2.70;;;17.50;99.90;17.30;95832.00;;;;5050111;28;20682;-85
2021/08/05 07:31:09;;;;;;;2.87;2.67;;;17.50;99.90;17.40;95832.00;;;;5067667;28;20220;-86
2021/08/05 07:33:58;;;;;;;2.23;2.03;;;17.50;99.90;17.30;95833.00;;;;5070470;28;20196;-86
2021/08/05 07:36:47;;;;;;;4.07;3.40;;;17.50;99.90;17.30;95823.00;;;;5057014;28;20196;-85
2021/08/05 07:39:36;;;;;;;2.93;1.33;;;17.50;99.90;17.20;95826.00;;;;5048917;28;20737;-86
2021/08/05 07:42:26;;;;;;;1.50;1.40;;;17.40;99.90;17.30;95814.00;;;;5057136;28;20196;-84
2021/08/05 07:45:15;;;;;;;1.83;1.50;;;17.40;99.90;17.10;95811.00;;;;5057706;28;20596;-86
2021/08/05 07:48:04;;;;;;;1.17;1.07;;;17.40;99.90;17.10;95811.00;;;;5061587;28;20192;-86
2021/08/05 07:50:54;;;;;;;1.43;1.00;;;17.40;99.90;17.00;95800.00;;;;5061533;28;20243;-86
2021/08/05 07:53:42;;;;;;;2.53;1.20;;;17.30;99.90;16.90;95805.00;;;;5070996;28;20527;-89
2021/08/05 07:56:31;;;;;;;1.00;0.93;;;17.20;99.90;16.80;95802.00;;;;5072231;28;20199;-88
2021/08/05 07:59:22;;;;;;;1.43;0.63;;;17.20;99.90;16.60;95806.00;;;;5063091;28;20223;-88
2021/08/05 08:02:10;;;;;;;0.90;0.90;;;17.10;99.90;16.60;95802.00;;;;5044312;28;20189;-87
2021/08/05 08:04:59;;;;;;;1.83;0.83;;;17.00;99.90;16.70;95814.00;;;;5041030;28;20204;-87
2021/08/05 08:07:48;;;;;;;0.87;0.80;;;16.90;99.90;16.60;95812.00;;;;5045689;28;20201;-87
2021/08/05 08:10:39;;;;;;;2.80;0.70;;;16.90;99.90;16.60;95831.00;;;;5042398;28;20235;-89
2021/08/05 08:13:41;;;;;;;2.87;1.13;;;16.80;99.90;16.50;95825.00;;;;5041600;28;20213;-87
2021/08/05 08:16:32;;;;;;;0.90;0.70;;;16.70;99.90;16.40;95825.00;;;;5042362;28;20346;-88
2021/08/05 08:19:21;;;;;;;1.30;1.20;;;16.70;99.90;16.30;95823.00;;;;5043207;28;20225;-88
2021/08/05 08:22:10;;;;;;;0.80;0.80;;;16.60;99.90;16.30;95830.00;;;;5043563;28;20200;-88
2021/08/05 08:24:59;;;;;;;1.27;1.10;;;16.60;99.90;16.30;95826.00;;;;5042742;28;20276;-88
2021/08/05 08:27:48;;;;;;;0.90;0.90;;;16.60;99.90;16.30;95834.00;;;;5043147;28;20228;-87
2021/08/05 08:30:37;;;;;;;1.70;0.93;;;16.50;99.90;16.30;95848.00;;;;5041442;28;20228;-88
2021/08/05 08:33:27;;;;;;;0.80;0.80;;;16.50;99.90;16.40;95839.00;;;;5042110;28;20202;-86
2021/08/05 08:36:16;;;;;;;3.60;0.97;;;16.50;99.90;16.50;95849.00;;;;5042330;28;20209;-86
2021/08/05 08:39:05;;;;;;;0.87;0.87;;;16.60;99.90;16.60;95849.00;;;;5042474;28;20197;-87
2021/08/05 08:41:54;;;;;;;2.33;0.73;;;16.60;99.90;16.60;95856.00;;;;5040249;28;20193;-88
2021/08/05 08:44:43;;;;;;;1.23;0.90;;;16.60;99.90;16.60;95861.00;;;;5042719;28;20198;-88
2021/08/05 08:47:33;;;;;;;2.17;1.10;;;16.70;99.90;16.50;95876.00;;;;5042165;28;20224;-88
2021/08/05 08:50:26;;;;;;;1.07;0.97;;;16.70;99.90;16.40;95872.00;;;;5038490;28;20228;-88
2021/08/05 08:53:18;;;;;;;1.50;0.83;;;16.60;99.90;16.30;95867.00;;;;5038016;28;20211;-89
2021/08/05 08:56:08;;;;;;;0.80;0.70;;;16.60;99.90;16.30;95874.00;;;;5043247;28;20202;-89
2021/08/05 08:58:58;;;;;;;0.60;0.50;;;16.50;99.90;16.20;95877.00;;;;5041241;28;20346;-87
2021/08/05 09:01:49;;;;;;;0.90;0.70;;;16.50;99.90;16.10;95874.00;;;;5042179;28;20669;-93
2021/08/05 09:04:51;;;;;;;0.70;0.60;;;16.40;99.90;16.10;95870.00;;;;5060986;28;20184;-91
2021/08/05 09:07:44;;;;;;;1.17;0.70;;;17.40;99.90;16.10;95873.00;;;;5062414;28;20219;-91
2021/08/05 09:10:34;;;;;;;0.50;0.50;;;16.30;99.90;16.10;95875.00;;;;5059588;28;20208;-90
2021/08/05 09:13:23;;;;;;;1.13;0.60;;;16.30;99.90;16.00;95871.00;;;;5059784;28;20224;-91
2021/08/05 09:16:28;;;;;;;1.13;0.77;;;16.30;99.90;16.10;95863.00;;;;5057616;28;20208;-90
2021/08/05 09:19:20;;;;;;;1.13;0.70;;;16.30;99.90;16.00;95862.00;;;;5051521;28;20232;-92
2021/08/05 09:22:09;;;;;;;1.80;0.57;;;16.30;99.90;15.70;95871.00;;;;5050834;28;20250;-91
2021/08/05 09:25:00;;;;;;;0.53;0.50;;;16.20;99.90;15.80;95876.00;;;;5051429;28;20278;-91
2021/08/05 09:27:55;;;;;;;2.50;1.00;;;16.10;99.90;15.90;95868.00;;;;5052216;28;20228;-92
2021/08/05 09:30:46;;;;;;;2.00;0.70;;;16.10;99.90;15.90;95869.00;;;;5051647;28;20221;-90
2021/08/05 09:33:38;;;;;;;0.50;0.50;;;16.20;99.90;16.00;95874.00;;;;5050772;28;20208;-90
2021/08/05 09:36:28;;;;;;;0.70;0.50;;;16.20;99.90;16.00;95872.00;;;;5050776;28;20227;-92
2021/08/05 09:39:23;;;;;;;0.83;0.53;;;16.20;99.90;16.00;95874.00;;;;5050801;28;20253;-91
2021/08/05 09:42:16;;;;;;;2.23;0.40;;;16.10;99.90;16.10;95885.00;;;;5050293;28;20274;-90
2021/08/05 09:45:07;;;;;;;1.27;0.57;;;16.20;99.90;16.10;95874.00;;;;5050629;28;20682;-90
2021/08/05 09:47:58;;;;;;;3.13;0.53;;;16.20;99.90;16.10;95882.00;;;;5046234;28;20219;-89
2021/08/05 09:50:47;;;;;;;0.20;0.20;;;16.20;99.90;16.20;95893.00;;;;5047952;28;20229;-90
2021/08/05 09:53:53;;;;;;;1.40;0.57;;;16.20;99.90;16.30;95890.00;;;;5045993;28;20618;-88
2021/08/05 09:56:55;;;;;;;1.20;0.60;;;16.30;99.90;16.50;95881.00;;;;5048502;28;20719;-89
2021/08/05 09:59:57;;;;;;;5.40;0.70;;;16.40;99.90;16.80;95879.00;;;;5036720;28;20254;-88
2021/08/05 10:02:48;;;;;;;1.50;0.50;;;16.60;99.90;17.00;95875.00;;;;5047313;28;20207;-88
2021/08/05 10:05:38;;;;;;;1.03;0.60;;;16.70;99.90;17.00;95878.00;;;;5040352;28;20203;-91
2021/08/05 10:08:35;;;;;;;0.20;0.20;;;16.90;99.90;17.20;95886.00;;;;5045546;28;20208;-90
2021/08/05 10:11:37;;;;;;;3.83;0.53;;;17.10;99.90;16.80;95885.00;;;;5069300;28;20228;-89
2021/08/05 10:14:27;;;;;;;1.13;0.53;;;17.10;99.90;16.90;95885.00;;;;5067762;28;20201;-89
2021/08/05 10:17:20;;;;;;;6.60;2.93;;;17.10;99.90;16.80;95880.00;;;;5056453;28;20604;-89
2021/08/05 10:20:13;;;;;;;0.43;0.40;;;17.10;99.90;16.90;95888.00;;;;5051238;28;20223;-88
2021/08/05 10:23:02;;;;;;;0.50;0.30;;;17.10;99.90;16.90;95891.00;;;;5068375;28;20203;-90
2021/08/05 10:25:51;;;;;;;1.40;0.73;;;17.20;99.90;17.10;95895.00;;;;5068363;28;20684;-89
2021/08/05 10:28:41;;;;;;;0.63;0.63;;;17.20;99.90;17.40;95885.00;;;;5071891;28;20202;-89
2021/08/05 10:31:30;;;;;;;0.73;0.60;;;17.20;99.90;17.40;95879.00;;;;5072859;28;20199;-92
2021/08/05 10:34:21;;;;;;;2.57;0.30;;;17.40;99.90;17.50;95885.00;;;;5071207;28;20199;-88
2021/08/05 10:37:13;;;;;;;1.03;0.53;;;17.50;99.90;17.60;95879.00;;;;5072471;28;20231;-92
2021/08/05 10:40:05;;;;;;;2.13;0.40;;;17.60;99.90;17.80;95879.00;;;;5072836;28;20235;-91
2021/08/05 10:42:55;;;;;;;1.17;0.40;;;17.70;99.90;17.70;95879.00;;;;5071862;28;20206;-88
2021/08/05 10:45:45;;;;;;;0.97;0.67;;;17.70;99.90;17.70;95883.00;;;;5072797;28;20196;-91
2021/08/05 10:48:34;;;;;;;1.03;0.53;;;17.80;99.90;17.80;95885.00;;;;5071414;28;20232;-88
2021/08/05 10:51:24;;;;;;;0.70;0.63;;;17.80;99.90;17.60;95890.00;;;;5071934;28;20200;-89
2021/08/05 10:54:13;;;;;;;2.57;0.87;;;17.90;99.90;17.40;95884.00;;;;5072806;28;20204;-89
2021/08/05 10:57:16;;;;;;;0.60;0.50;;;17.80;99.90;17.60;95887.00;;;;5072620;28;20196;-88
2021/08/05 11:00:09;;;;;;;0.67;0.40;;;17.80;99.90;17.60;95892.00;;;;5072152;28;20220;-90
2021/08/05 11:02:58;;;;;;;0.50;0.50;;;17.80;99.90;17.50;95898.00;;;;5071715;28;20206;-87
2021/08/05 11:05:48;;;;;;;2.47;0.60;;;17.80;99.90;17.60;95902.00;;;;5071419;28;20215;-88
2021/08/05 11:08:38;;;;;;;0.80;0.77;;;17.80;99.90;17.80;95899.00;;;;5061328;28;20589;-87
2021/08/05 11:11:34;;;;;;;0.63;0.50;;;17.80;99.90;17.80;95903.00;;;;5051365;28;20291;-88
2021/08/05 11:14:41;;;;;;;1.07;0.87;;;17.90;99.90;17.50;95902.00;;;;5051206;28;20197;-90
2021/08/05 11:17:30;;;;;;;2.53;0.47;;;17.90;99.90;17.20;95906.00;;;;5056120;28;20207;-88
2021/08/05 11:20:19;;;;;;;1.63;0.60;;;17.70;99.90;17.50;95908.00;;;;5058510;28;20224;-89
2021/08/05 11:23:42;;;;;;;0.60;0.50;;;17.70;99.90;17.70;95914.00;;;;5060778;28;20204;-89
2021/08/05 11:26:31;;;;;;;1.13;0.50;;;17.80;99.90;17.60;95913.00;;;;5061036;28;20593;-91
2021/08/05 11:29:29;;;;;;;0.73;0.53;;;17.80;99.90;17.50;95916.00;;;;5059704;28;20220;-89
2021/08/05 11:32:39;;;;;;;1.90;0.60;;;17.80;99.90;17.60;95912.00;;;;5061923;28;20686;-89
2021/08/05 11:35:28;;;;;;;1.03;0.93;;;17.80;99.90;17.50;95917.00;;;;5059623;28;20215;-89
2021/08/05 11:38:18;;;;;;;1.97;0.60;;;17.80;99.90;17.50;95908.00;;;;5058770;28;20196;-89
2021/08/05 11:41:08;;;;;;;1.10;0.80;;;17.70;99.90;17.50;95903.00;;;;5060500;28;20593;-89
2021/08/05 11:44:19;;;;;;;0.40;0.30;;;17.70;99.90;17.50;95910.00;;;;5056855;28;20192;-88
2021/08/05 11:47:40;;;;;;;1.83;0.40;;;17.70;99.90;17.40;95909.00;;;;5062457;28;20223;-88
2021/08/05 11:50:38;;;;;;;0.37;0.30;;;17.60;99.90;17.50;95909.00;;;;5060691;28;20216;-89
2021/08/05 11:53:31;;;;;;;2.63;0.60;;;17.60;99.90;17.50;95914.00;;;;5057869;28;20195;-88
2021/08/05 11:56:21;;;;;;;0.40;0.40;;;17.60;99.90;17.60;95908.00;;;;5057759;28;20199;-91
2021/08/05 11:59:10;;;;;;;1.33;1.00;;;17.60;99.90;17.70;95917.00;;;;5060067;28;20467;-89
2021/08/05 12:02:07;;;;;;;1.03;0.50;;;17.70;99.90;17.90;95907.00;;;;5051293;28;20594;-89
2021/08/05 12:04:57;;;;;;;0.97;0.37;;;17.80;99.90;18.00;95911.00;;;;5052107;28;20716;-88
2021/08/05 12:07:51;;;;;;;2.43;0.50;;;17.90;99.90;18.10;95910.00;;;;5064284;28;20597;-89
2021/08/05 12:10:42;;;;;;;0.63;0.60;;;18.00;99.90;18.30;95904.00;;;;5049476;28;20220;-89
2021/08/05 12:13:42;;;;;;;1.63;0.30;;;18.10;99.90;18.50;95899.00;;;;5059213;28;20188;-90
2021/08/05 12:16:31;;;;;;;0.33;0.20;;;18.30;99.90;18.70;95896.00;;;;5054419;28;20200;-90
2021/08/05 12:19:20;;;;;;;1.93;0.33;;;18.50;99.90;18.80;95911.00;;;;5045903;28;20228;-89
2021/08/05 12:22:08;;;;;;;0.60;0.33;;;18.60;99.90;18.40;95896.00;;;;5047762;28;20200;-90
2021/08/05 12:25:01;;;;;;;0.30;0.30;;;18.70;99.90;18.40;95899.00;;;;5048251;28;20783;-89
2021/08/05 12:27:58;;;;;;;0.30;0.30;;;18.60;99.90;18.70;95898.00;;;;5050136;28;20805;-89
2021/08/05 12:30:51;;;;;;;0.40;0.20;;;18.70;99.90;18.90;95892.00;;;;5042787;28;20913;-89
2021/08/05 12:33:43;;;;;;;1.00;0.43;;;18.80;99.90;18.80;95888.00;;;;5050450;28;20204;-88
2021/08/05 12:36:32;;;;;;;0.30;0.30;;;18.90;99.90;19.00;95889.00;;;;5049601;28;20226;-89
2021/08/05 12:39:25;;;;;;;0.40;0.30;;;18.90;99.90;19.30;95886.00;;;;5049650;28;20238;-89